sensor_id;sensor_type;location;lat;lon;timestamp;pressure;altitude;pressure_sealevel;temperature;humidity
35848;BME280;22332;51.954;20.118;2023-02-28T00:00:55;101644.23;;;-1.22;60.02
35848;BME280;22332;51.954;20.118;2023-02-28T00:04:01;101645.33;;;-1.23;60.09
35848;BME280;22332;51.954;20.118;2023-02-28T00:07:06;101643.61;;;-1.25;60.05
35848;BME280;22332;51.954;20.118;2023-02-28T00:10:14;101645.05;;;-1.27;60.23
35848;BME280;22332;51.954;20.118;2023-02-28T00:13:24;101641.15;;;-1.30;60.09
35848;BME280;22332;51.954;20.118;2023-02-28T00:16:30;101641.28;;;-1.35;60.16
35848;BME280;22332;51.954;20.118;2023-02-28T00:19:36;101641.30;;;-1.42;60.41
35848;BME280;22332;51.954;20.118;2023-02-28T00:22:43;101637.73;;;-1.52;60.19
35848;BME280;22332;51.954;20.118;2023-02-28T00:25:48;101640.39;;;-1.60;60.33
35848;BME280;22332;51.954;20.118;2023-02-28T00:28:54;101641.41;;;-1.66;60.27
35848;BME280;22332;51.954;20.118;2023-02-28T00:32:00;101638.77;;;-1.71;60.35
35848;BME280;22332;51.954;20.118;2023-02-28T00:35:08;101644.46;;;-1.82;60.06
35848;BME280;22332;51.954;20.118;2023-02-28T00:38:14;101645.69;;;-1.89;60.16
35848;BME280;22332;51.954;20.118;2023-02-28T00:41:20;101643.16;;;-1.93;60.43
35848;BME280;22332;51.954;20.118;2023-02-28T00:44:25;101642.75;;;-1.98;60.47
35848;BME280;22332;51.954;20.118;2023-02-28T00:47:31;101644.98;;;-2.03;60.60
35848;BME280;22332;51.954;20.118;2023-02-28T00:50:37;101642.89;;;-2.10;60.51
35848;BME280;22332;51.954;20.118;2023-02-28T00:53:42;101645.48;;;-2.31;60.21
35848;BME280;22332;51.954;20.118;2023-02-28T00:56:48;101644.53;;;-2.42;60.99
35848;BME280;22332;51.954;20.118;2023-02-28T00:59:54;101641.55;;;-2.42;61.16
35848;BME280;22332;51.954;20.118;2023-02-28T01:03:00;101646.17;;;-2.46;60.32
35848;BME280;22332;51.954;20.118;2023-02-28T01:06:06;101646.45;;;-2.50;61.04
35848;BME280;22332;51.954;20.118;2023-02-28T01:09:12;101644.58;;;-2.52;61.17
35848;BME280;22332;51.954;20.118;2023-02-28T01:12:20;101649.52;;;-2.54;61.08
35848;BME280;22332;51.954;20.118;2023-02-28T01:15:25;101650.66;;;-2.59;61.29
35848;BME280;22332;51.954;20.118;2023-02-28T01:18:31;101650.17;;;-2.68;60.58
35848;BME280;22332;51.954;20.118;2023-02-28T01:21:37;101650.83;;;-2.82;60.90
35848;BME280;22332;51.954;20.118;2023-02-28T01:24:43;101649.17;;;-2.86;60.69
35848;BME280;22332;51.954;20.118;2023-02-28T01:27:50;101652.63;;;-2.93;60.75
35848;BME280;22332;51.954;20.118;2023-02-28T01:30:57;101649.73;;;-3.05;60.88
35848;BME280;22332;51.954;20.118;2023-02-28T01:34:03;101648.55;;;-3.06;61.20
35848;BME280;22332;51.954;20.118;2023-02-28T01:37:09;101649.31;;;-3.09;60.91
35848;BME280;22332;51.954;20.118;2023-02-28T01:40:15;101646.83;;;-3.15;60.90
35848;BME280;22332;51.954;20.118;2023-02-28T01:43:26;101647.48;;;-3.22;60.73
35848;BME280;22332;51.954;20.118;2023-02-28T01:46:35;101649.88;;;-3.38;60.77
35848;BME280;22332;51.954;20.118;2023-02-28T01:49:41;101646.05;;;-3.65;60.61
35848;BME280;22332;51.954;20.118;2023-02-28T01:52:48;101645.70;;;-3.75;60.83
35848;BME280;22332;51.954;20.118;2023-02-28T01:55:55;101652.40;;;-3.80;61.10
35848;BME280;22332;51.954;20.118;2023-02-28T01:59:00;101652.83;;;-3.85;61.36
35848;BME280;22332;51.954;20.118;2023-02-28T02:02:06;101654.94;;;-3.87;61.06
35848;BME280;22332;51.954;20.118;2023-02-28T02:05:15;101653.13;;;-3.91;61.33
35848;BME280;22332;51.954;20.118;2023-02-28T02:08:24;101651.09;;;-3.95;60.79
35848;BME280;22332;51.954;20.118;2023-02-28T02:11:31;101646.29;;;-3.99;61.38
35848;BME280;22332;51.954;20.118;2023-02-28T02:14:51;101643.96;;;-3.96;61.43
35848;BME280;22332;51.954;20.118;2023-02-28T02:18:06;101648.45;;;-3.92;61.32
35848;BME280;22332;51.954;20.118;2023-02-28T02:21:40;101645.14;;;-3.92;61.44
35848;BME280;22332;51.954;20.118;2023-02-28T02:25:10;101643.95;;;-3.95;61.61
35848;BME280;22332;51.954;20.118;2023-02-28T02:28:42;101642.27;;;-3.98;61.71
35848;BME280;22332;51.954;20.118;2023-02-28T02:32:09;101639.80;;;-3.97;61.99
35848;BME280;22332;51.954;20.118;2023-02-28T02:35:26;101644.45;;;-3.95;61.77
35848;BME280;22332;51.954;20.118;2023-02-28T02:38:38;101646.71;;;-3.94;61.65
35848;BME280;22332;51.954;20.118;2023-02-28T02:41:51;101650.64;;;-4.10;60.95
35848;BME280;22332;51.954;20.118;2023-02-28T02:45:02;101649.08;;;-4.21;61.54
35848;BME280;22332;51.954;20.118;2023-02-28T02:48:15;101651.99;;;-4.19;61.67
35848;BME280;22332;51.954;20.118;2023-02-28T02:51:23;101655.61;;;-4.17;61.66
35848;BME280;22332;51.954;20.118;2023-02-28T02:54:32;101654.00;;;-4.14;61.89
35848;BME280;22332;51.954;20.118;2023-02-28T02:57:42;101659.35;;;-4.12;61.89
35848;BME280;22332;51.954;20.118;2023-02-28T03:00:54;101659.88;;;-4.12;61.73
35848;BME280;22332;51.954;20.118;2023-02-28T03:04:04;101658.70;;;-4.15;61.64
35848;BME280;22332;51.954;20.118;2023-02-28T03:07:11;101660.61;;;-4.15;61.84
35848;BME280;22332;51.954;20.118;2023-02-28T03:10:36;101661.89;;;-4.18;61.86
35848;BME280;22332;51.954;20.118;2023-02-28T03:14:04;101662.86;;;-4.25;61.59
35848;BME280;22332;51.954;20.118;2023-02-28T03:17:27;101666.53;;;-4.26;61.86
35848;BME280;22332;51.954;20.118;2023-02-28T03:20:40;101671.56;;;-4.26;61.80
35848;BME280;22332;51.954;20.118;2023-02-28T03:23:55;101669.86;;;-4.28;61.98
35848;BME280;22332;51.954;20.118;2023-02-28T03:27:09;101667.27;;;-4.29;62.05
35848;BME280;22332;51.954;20.118;2023-02-28T03:30:22;101671.33;;;-4.33;62.08
35848;BME280;22332;51.954;20.118;2023-02-28T03:33:32;101670.68;;;-4.36;62.12
35848;BME280;22332;51.954;20.118;2023-02-28T03:36:41;101675.04;;;-4.37;62.19
35848;BME280;22332;51.954;20.118;2023-02-28T03:39:53;101677.48;;;-4.38;62.23
35848;BME280;22332;51.954;20.118;2023-02-28T03:43:09;101679.02;;;-4.37;62.11
35848;BME280;22332;51.954;20.118;2023-02-28T03:46:22;101675.04;;;-4.37;61.87
35848;BME280;22332;51.954;20.118;2023-02-28T03:49:32;101678.70;;;-4.38;62.23
35848;BME280;22332;51.954;20.118;2023-02-28T03:52:42;101679.59;;;-4.40;61.98
35848;BME280;22332;51.954;20.118;2023-02-28T03:55:52;101684.66;;;-4.42;61.96
35848;BME280;22332;51.954;20.118;2023-02-28T03:59:02;101684.70;;;-4.44;62.26
35848;BME280;22332;51.954;20.118;2023-02-28T04:02:10;101687.19;;;-4.48;62.33
35848;BME280;22332;51.954;20.118;2023-02-28T04:05:16;101689.30;;;-4.50;62.20
35848;BME280;22332;51.954;20.118;2023-02-28T04:08:21;101695.77;;;-4.53;62.24
35848;BME280;22332;51.954;20.118;2023-02-28T04:11:32;101700.82;;;-4.55;62.23
35848;BME280;22332;51.954;20.118;2023-02-28T04:14:38;101694.42;;;-4.57;62.27
35848;BME280;22332;51.954;20.118;2023-02-28T04:17:44;101692.90;;;-4.60;62.36
35848;BME280;22332;51.954;20.118;2023-02-28T04:20:49;101692.58;;;-4.61;62.28
35848;BME280;22332;51.954;20.118;2023-02-28T04:23:55;101693.83;;;-4.63;62.22
35848;BME280;22332;51.954;20.118;2023-02-28T04:27:04;101699.09;;;-4.67;62.17
35848;BME280;22332;51.954;20.118;2023-02-28T04:30:12;101695.13;;;-4.70;62.29
35848;BME280;22332;51.954;20.118;2023-02-28T04:33:18;101692.02;;;-4.72;62.49
35848;BME280;22332;51.954;20.118;2023-02-28T04:36:23;101691.55;;;-4.76;62.14
35848;BME280;22332;51.954;20.118;2023-02-28T04:39:29;101688.52;;;-4.82;62.24
35848;BME280;22332;51.954;20.118;2023-02-28T04:42:34;101694.79;;;-4.85;62.38
35848;BME280;22332;51.954;20.118;2023-02-28T04:45:40;101693.98;;;-4.88;62.31
35848;BME280;22332;51.954;20.118;2023-02-28T04:48:46;101694.33;;;-4.90;62.08
35848;BME280;22332;51.954;20.118;2023-02-28T04:51:52;101697.04;;;-4.98;62.08
35848;BME280;22332;51.954;20.118;2023-02-28T04:54:57;101698.29;;;-5.01;62.28
35848;BME280;22332;51.954;20.118;2023-02-28T04:58:03;101701.44;;;-5.04;62.05
35848;BME280;22332;51.954;20.118;2023-02-28T05:01:18;101706.83;;;-5.19;61.73
35848;BME280;22332;51.954;20.118;2023-02-28T05:04:24;101705.65;;;-5.23;62.22
35848;BME280;22332;51.954;20.118;2023-02-28T05:07:30;101707.04;;;-5.23;62.33
35848;BME280;22332;51.954;20.118;2023-02-28T05:10:35;101708.42;;;-5.22;62.28
35848;BME280;22332;51.954;20.118;2023-02-28T05:13:41;101706.15;;;-5.21;62.29
35848;BME280;22332;51.954;20.118;2023-02-28T05:16:47;101712.09;;;-5.24;62.11
35848;BME280;22332;51.954;20.118;2023-02-28T05:19:52;101714.71;;;-5.26;62.33
35848;BME280;22332;51.954;20.118;2023-02-28T05:22:59;101717.49;;;-5.26;62.29
35848;BME280;22332;51.954;20.118;2023-02-28T05:26:05;101720.23;;;-5.25;62.57
35848;BME280;22332;51.954;20.118;2023-02-28T05:29:11;101726.30;;;-5.23;62.49
35848;BME280;22332;51.954;20.118;2023-02-28T05:32:17;101732.55;;;-5.23;62.18
35848;BME280;22332;51.954;20.118;2023-02-28T05:35:22;101728.05;;;-5.24;62.38
35848;BME280;22332;51.954;20.118;2023-02-28T05:38:28;101729.95;;;-5.24;62.41
35848;BME280;22332;51.954;20.118;2023-02-28T05:41:34;101728.23;;;-5.26;62.28
35848;BME280;22332;51.954;20.118;2023-02-28T05:44:39;101725.11;;;-5.25;62.50
35848;BME280;22332;51.954;20.118;2023-02-28T05:47:46;101727.69;;;-5.23;62.48
35848;BME280;22332;51.954;20.118;2023-02-28T05:50:51;101731.98;;;-5.19;62.20
35848;BME280;22332;51.954;20.118;2023-02-28T05:54:00;101733.00;;;-5.17;62.49
35848;BME280;22332;51.954;20.118;2023-02-28T05:57:06;101732.45;;;-5.14;62.44
35848;BME280;22332;51.954;20.118;2023-02-28T06:00:13;101732.25;;;-5.11;62.46
35848;BME280;22332;51.954;20.118;2023-02-28T06:03:22;101734.80;;;-5.07;62.62
35848;BME280;22332;51.954;20.118;2023-02-28T06:06:27;101737.52;;;-5.02;62.72
35848;BME280;22332;51.954;20.118;2023-02-28T06:09:33;101742.14;;;-4.96;62.79
35848;BME280;22332;51.954;20.118;2023-02-28T06:12:39;101746.25;;;-4.91;62.75
35848;BME280;22332;51.954;20.118;2023-02-28T06:15:45;101750.04;;;-4.89;62.84
35848;BME280;22332;51.954;20.118;2023-02-28T06:18:51;101752.75;;;-4.83;63.00
35848;BME280;22332;51.954;20.118;2023-02-28T06:21:59;101751.30;;;-4.78;62.90
35848;BME280;22332;51.954;20.118;2023-02-28T06:25:06;101751.75;;;-4.73;63.08
35848;BME280;22332;51.954;20.118;2023-02-28T06:28:12;101751.52;;;-4.67;63.04
35848;BME280;22332;51.954;20.118;2023-02-28T06:31:18;101753.30;;;-4.57;63.29
35848;BME280;22332;51.954;20.118;2023-02-28T06:34:24;101752.72;;;-4.52;63.27
35848;BME280;22332;51.954;20.118;2023-02-28T06:37:31;101754.98;;;-4.53;62.91
35848;BME280;22332;51.954;20.118;2023-02-28T06:40:37;101752.42;;;-4.44;63.67
35848;BME280;22332;51.954;20.118;2023-02-28T06:43:43;101754.52;;;-4.32;63.54
35848;BME280;22332;51.954;20.118;2023-02-28T06:46:49;101758.90;;;-4.21;63.58
35848;BME280;22332;51.954;20.118;2023-02-28T06:49:55;101760.05;;;-4.17;63.45
35848;BME280;22332;51.954;20.118;2023-02-28T06:53:00;101762.22;;;-4.22;63.47
35848;BME280;22332;51.954;20.118;2023-02-28T06:56:08;101763.99;;;-4.25;63.57
35848;BME280;22332;51.954;20.118;2023-02-28T06:59:14;101760.39;;;-4.29;64.01
35848;BME280;22332;51.954;20.118;2023-02-28T07:02:20;101758.67;;;-4.18;64.73
35848;BME280;22332;51.954;20.118;2023-02-28T07:05:25;101760.45;;;-4.08;64.52
35848;BME280;22332;51.954;20.118;2023-02-28T07:08:31;101756.65;;;-3.99;64.71
35848;BME280;22332;51.954;20.118;2023-02-28T07:11:37;101753.31;;;-3.85;65.06
35848;BME280;22332;51.954;20.118;2023-02-28T07:14:42;101758.23;;;-3.66;65.27
35848;BME280;22332;51.954;20.118;2023-02-28T07:17:48;101759.61;;;-3.44;65.55
35848;BME280;22332;51.954;20.118;2023-02-28T07:20:53;101761.98;;;-3.22;65.60
35848;BME280;22332;51.954;20.118;2023-02-28T07:23:59;101759.09;;;-2.97;65.55
35848;BME280;22332;51.954;20.118;2023-02-28T07:27:05;101758.13;;;-2.75;65.24
35848;BME280;22332;51.954;20.118;2023-02-28T07:30:12;101758.55;;;-2.53;65.22
35848;BME280;22332;51.954;20.118;2023-02-28T07:33:18;101756.97;;;-2.36;65.47
35848;BME280;22332;51.954;20.118;2023-02-28T07:36:23;101755.20;;;-2.20;65.17
35848;BME280;22332;51.954;20.118;2023-02-28T07:39:29;101757.64;;;-2.03;64.82
35848;BME280;22332;51.954;20.118;2023-02-28T07:42:35;101753.96;;;-1.88;64.86
35848;BME280;22332;51.954;20.118;2023-02-28T07:45:42;101752.96;;;-1.75;64.80
35848;BME280;22332;51.954;20.118;2023-02-28T07:48:47;101751.98;;;-1.64;64.82
35848;BME280;22332;51.954;20.118;2023-02-28T07:51:53;101754.99;;;-1.51;64.49
35848;BME280;22332;51.954;20.118;2023-02-28T07:54:58;101757.17;;;-1.42;64.68
35848;BME280;22332;51.954;20.118;2023-02-28T07:58:04;101751.20;;;-1.33;64.72
35848;BME280;22332;51.954;20.118;2023-02-28T08:01:10;101754.64;;;-1.25;64.60
35848;BME280;22332;51.954;20.118;2023-02-28T08:04:16;101759.61;;;-1.14;64.40
35848;BME280;22332;51.954;20.118;2023-02-28T08:07:22;101757.09;;;-1.05;64.17
35848;BME280;22332;51.954;20.118;2023-02-28T08:10:27;101751.83;;;-0.97;64.27
35848;BME280;22332;51.954;20.118;2023-02-28T08:13:33;101752.64;;;-0.90;64.22
35848;BME280;22332;51.954;20.118;2023-02-28T08:16:38;101749.16;;;-0.84;64.08
35848;BME280;22332;51.954;20.118;2023-02-28T08:19:46;101750.20;;;-0.77;63.80
35848;BME280;22332;51.954;20.118;2023-02-28T08:22:52;101751.22;;;-0.70;63.28
35848;BME280;22332;51.954;20.118;2023-02-28T08:25:57;101751.21;;;-0.64;62.98
35848;BME280;22332;51.954;20.118;2023-02-28T08:29:03;101749.67;;;-0.59;62.95
35848;BME280;22332;51.954;20.118;2023-02-28T08:32:08;101744.97;;;-0.53;62.71
35848;BME280;22332;51.954;20.118;2023-02-28T08:35:14;101747.30;;;-0.49;62.72
35848;BME280;22332;51.954;20.118;2023-02-28T08:38:20;101749.35;;;-0.42;62.76
35848;BME280;22332;51.954;20.118;2023-02-28T08:41:25;101743.48;;;-0.38;62.75
35848;BME280;22332;51.954;20.118;2023-02-28T08:44:31;101744.13;;;-0.31;62.45
35848;BME280;22332;51.954;20.118;2023-02-28T08:47:37;101741.14;;;-0.24;62.44
35848;BME280;22332;51.954;20.118;2023-02-28T08:50:42;101740.55;;;-0.17;62.47
35848;BME280;22332;51.954;20.118;2023-02-28T08:53:48;101740.30;;;-0.09;62.46
35848;BME280;22332;51.954;20.118;2023-02-28T08:56:54;101739.04;;;-0.02;62.27
35848;BME280;22332;51.954;20.118;2023-02-28T08:59:59;101735.73;;;0.03;61.87
35848;BME280;22332;51.954;20.118;2023-02-28T09:03:08;101736.13;;;0.07;62.19
35848;BME280;22332;51.954;20.118;2023-02-28T09:06:15;101730.90;;;0.12;62.09
35848;BME280;22332;51.954;20.118;2023-02-28T09:09:20;101737.11;;;0.20;61.63
35848;BME280;22332;51.954;20.118;2023-02-28T09:12:27;101735.48;;;0.22;60.98
35848;BME280;22332;51.954;20.118;2023-02-28T09:15:38;101737.84;;;0.24;61.55
35848;BME280;22332;51.954;20.118;2023-02-28T09:18:44;101739.64;;;0.33;61.55
35848;BME280;22332;51.954;20.118;2023-02-28T09:21:49;101743.39;;;0.42;61.46
35848;BME280;22332;51.954;20.118;2023-02-28T09:24:56;101741.36;;;0.50;61.37
35848;BME280;22332;51.954;20.118;2023-02-28T09:28:02;101738.54;;;0.56;61.06
35848;BME280;22332;51.954;20.118;2023-02-28T09:31:13;101737.53;;;0.60;60.88
35848;BME280;22332;51.954;20.118;2023-02-28T09:34:19;101732.45;;;0.60;59.53
35848;BME280;22332;51.954;20.118;2023-02-28T09:37:24;101733.30;;;0.56;60.42
35848;BME280;22332;51.954;20.118;2023-02-28T09:40:36;101732.16;;;0.63;60.91
35848;BME280;22332;51.954;20.118;2023-02-28T09:43:46;101735.33;;;0.73;60.88
35848;BME280;22332;51.954;20.118;2023-02-28T09:46:55;101735.91;;;0.82;60.87
35848;BME280;22332;51.954;20.118;2023-02-28T09:50:12;101738.07;;;0.90;60.43
35848;BME280;22332;51.954;20.118;2023-02-28T09:53:26;101738.85;;;0.98;60.53
35848;BME280;22332;51.954;20.118;2023-02-28T09:56:38;101738.17;;;1.02;59.91
35848;BME280;22332;51.954;20.118;2023-02-28T09:59:57;101735.69;;;0.98;59.62
35848;BME280;22332;51.954;20.118;2023-02-28T10:03:30;101735.71;;;1.02;60.06
35848;BME280;22332;51.954;20.118;2023-02-28T10:06:44;101727.18;;;1.10;60.25
35848;BME280;22332;51.954;20.118;2023-02-28T10:09:54;101735.05;;;1.21;59.96
35848;BME280;22332;51.954;20.118;2023-02-28T10:13:05;101735.41;;;1.29;59.63
35848;BME280;22332;51.954;20.118;2023-02-28T10:16:16;101734.55;;;1.34;59.71
35848;BME280;22332;51.954;20.118;2023-02-28T10:19:27;101738.66;;;1.41;59.72
35848;BME280;22332;51.954;20.118;2023-02-28T10:22:53;101740.88;;;1.47;59.49
35848;BME280;22332;51.954;20.118;2023-02-28T10:26:08;101740.63;;;1.54;59.67
35848;BME280;22332;51.954;20.118;2023-02-28T10:29:16;101742.20;;;1.59;59.33
35848;BME280;22332;51.954;20.118;2023-02-28T10:32:24;101738.22;;;1.62;59.24
35848;BME280;22332;51.954;20.118;2023-02-28T10:35:32;101735.14;;;1.64;59.16
35848;BME280;22332;51.954;20.118;2023-02-28T10:38:39;101733.19;;;1.66;59.07
35848;BME280;22332;51.954;20.118;2023-02-28T10:41:45;101737.59;;;1.69;59.35
35848;BME280;22332;51.954;20.118;2023-02-28T10:45:09;101732.42;;;1.76;59.26
35848;BME280;22332;51.954;20.118;2023-02-28T10:48:31;101730.48;;;1.81;59.04
35848;BME280;22332;51.954;20.118;2023-02-28T10:51:39;101730.54;;;1.74;56.89
35848;BME280;22332;51.954;20.118;2023-02-28T10:54:45;101727.41;;;1.74;58.76
35848;BME280;22332;51.954;20.118;2023-02-28T10:57:51;101730.08;;;1.73;57.74
35848;BME280;22332;51.954;20.118;2023-02-28T11:00:58;101730.98;;;1.68;57.98
35848;BME280;22332;51.954;20.118;2023-02-28T11:04:04;101726.08;;;1.68;58.21
35848;BME280;22332;51.954;20.118;2023-02-28T11:07:23;101723.83;;;1.62;56.03
35848;BME280;22332;51.954;20.118;2023-02-28T11:10:31;101723.42;;;1.59;57.73
35848;BME280;22332;51.954;20.118;2023-02-28T11:13:39;101718.52;;;1.64;57.99
35848;BME280;22332;51.954;20.118;2023-02-28T11:16:46;101715.36;;;1.68;57.73
35848;BME280;22332;51.954;20.118;2023-02-28T11:19:54;101712.80;;;1.71;57.36
35848;BME280;22332;51.954;20.118;2023-02-28T11:23:04;101710.45;;;1.68;57.31
35848;BME280;22332;51.954;20.118;2023-02-28T11:26:10;101703.30;;;1.71;57.78
35848;BME280;22332;51.954;20.118;2023-02-28T11:29:21;101699.93;;;1.76;56.95
35848;BME280;22332;51.954;20.118;2023-02-28T11:32:29;101694.97;;;1.73;56.98
35848;BME280;22332;51.954;20.118;2023-02-28T11:35:38;101692.55;;;1.77;57.77
35848;BME280;22332;51.954;20.118;2023-02-28T11:38:44;101688.44;;;1.83;57.66
35848;BME280;22332;51.954;20.118;2023-02-28T11:42:01;101681.62;;;1.87;57.77
35848;BME280;22332;51.954;20.118;2023-02-28T11:45:18;101675.61;;;1.92;57.70
35848;BME280;22332;51.954;20.118;2023-02-28T11:48:30;101673.57;;;1.95;57.10
35848;BME280;22332;51.954;20.118;2023-02-28T11:51:49;101671.18;;;1.93;57.66
35848;BME280;22332;51.954;20.118;2023-02-28T11:55:15;101666.86;;;1.91;55.65
35848;BME280;22332;51.954;20.118;2023-02-28T11:58:30;101659.33;;;1.87;56.86
35848;BME280;22332;51.954;20.118;2023-02-28T12:01:50;101654.37;;;1.92;57.01
35848;BME280;22332;51.954;20.118;2023-02-28T12:05:15;101662.02;;;1.99;56.54
35848;BME280;22332;51.954;20.118;2023-02-28T12:08:40;101658.83;;;1.99;56.86
35848;BME280;22332;51.954;20.118;2023-02-28T12:11:54;101652.91;;;2.03;57.09
35848;BME280;22332;51.954;20.118;2023-02-28T12:15:20;101641.69;;;2.07;57.17
35848;BME280;22332;51.954;20.118;2023-02-28T12:18:36;101639.66;;;2.13;56.88
35848;BME280;22332;51.954;20.118;2023-02-28T12:22:15;101638.15;;;2.19;56.66
35848;BME280;22332;51.954;20.118;2023-02-28T12:25:42;101630.78;;;2.23;56.51
35848;BME280;22332;51.954;20.118;2023-02-28T12:28:57;101628.44;;;2.21;55.41
35848;BME280;22332;51.954;20.118;2023-02-28T12:32:09;101624.91;;;2.17;56.28
35848;BME280;22332;51.954;20.118;2023-02-28T12:35:18;101622.63;;;2.21;55.75
35848;BME280;22332;51.954;20.118;2023-02-28T12:38:29;101620.66;;;2.22;55.51
35848;BME280;22332;51.954;20.118;2023-02-28T12:41:39;101622.82;;;2.25;56.10
35848;BME280;22332;51.954;20.118;2023-02-28T12:44:48;101615.21;;;2.30;56.05
35848;BME280;22332;51.954;20.118;2023-02-28T12:47:59;101613.30;;;2.34;54.94
35848;BME280;22332;51.954;20.118;2023-02-28T12:51:08;101613.28;;;2.30;54.60
35848;BME280;22332;51.954;20.118;2023-02-28T12:54:23;101610.59;;;2.32;55.30
35848;BME280;22332;51.954;20.118;2023-02-28T12:57:34;101606.66;;;2.37;55.90
35848;BME280;22332;51.954;20.118;2023-02-28T13:00:54;101601.42;;;2.45;56.01
35848;BME280;22332;51.954;20.118;2023-02-28T13:04:27;101597.63;;;2.51;54.77
35848;BME280;22332;51.954;20.118;2023-02-28T13:07:54;101591.59;;;2.52;55.53
35848;BME280;22332;51.954;20.118;2023-02-28T13:11:03;101589.43;;;2.62;56.03
35848;BME280;22332;51.954;20.118;2023-02-28T13:14:20;101592.22;;;2.70;56.07
35848;BME280;22332;51.954;20.118;2023-02-28T13:17:27;101592.85;;;2.75;55.89
35848;BME280;22332;51.954;20.118;2023-02-28T13:20:36;101594.40;;;2.80;55.77
35848;BME280;22332;51.954;20.118;2023-02-28T13:24:03;101596.46;;;2.85;55.71
35848;BME280;22332;51.954;20.118;2023-02-28T13:27:36;101588.55;;;2.89;55.82
35848;BME280;22332;51.954;20.118;2023-02-28T13:31:05;101587.19;;;2.92;55.81
35848;BME280;22332;51.954;20.118;2023-02-28T13:34:17;101583.70;;;2.95;55.91
35848;BME280;22332;51.954;20.118;2023-02-28T13:37:37;101579.77;;;2.96;55.05
35848;BME280;22332;51.954;20.118;2023-02-28T13:40:47;101576.84;;;2.95;55.29
35848;BME280;22332;51.954;20.118;2023-02-28T13:44:04;101578.89;;;2.96;55.29
35848;BME280;22332;51.954;20.118;2023-02-28T13:47:30;101577.40;;;2.91;53.86
35848;BME280;22332;51.954;20.118;2023-02-28T13:50:38;101581.70;;;2.81;54.81
35848;BME280;22332;51.954;20.118;2023-02-28T13:53:59;101580.06;;;2.79;54.88
35848;BME280;22332;51.954;20.118;2023-02-28T13:57:17;101577.83;;;2.73;54.39
35848;BME280;22332;51.954;20.118;2023-02-28T14:00:35;101578.95;;;2.72;55.01
35848;BME280;22332;51.954;20.118;2023-02-28T14:04:14;101579.29;;;2.72;55.26
35848;BME280;22332;51.954;20.118;2023-02-28T14:07:29;101577.77;;;2.79;55.45
35848;BME280;22332;51.954;20.118;2023-02-28T14:10:41;101573.66;;;2.80;54.37
35848;BME280;22332;51.954;20.118;2023-02-28T14:13:48;101570.11;;;2.65;53.81
35848;BME280;22332;51.954;20.118;2023-02-28T14:16:54;101566.79;;;2.61;55.00
35848;BME280;22332;51.954;20.118;2023-02-28T14:20:00;101564.45;;;2.62;54.14
35848;BME280;22332;51.954;20.118;2023-02-28T14:23:12;101562.13;;;2.56;54.29
35848;BME280;22332;51.954;20.118;2023-02-28T14:26:31;101555.30;;;2.51;54.12
35848;BME280;22332;51.954;20.118;2023-02-28T14:30:01;101548.88;;;2.49;54.26
35848;BME280;22332;51.954;20.118;2023-02-28T14:33:25;101547.87;;;2.44;54.34
35848;BME280;22332;51.954;20.118;2023-02-28T14:36:35;101541.85;;;2.42;54.81
35848;BME280;22332;51.954;20.118;2023-02-28T14:39:44;101543.34;;;2.35;55.13
35848;BME280;22332;51.954;20.118;2023-02-28T14:42:57;101538.64;;;2.31;55.41
35848;BME280;22332;51.954;20.118;2023-02-28T14:46:05;101543.10;;;2.25;55.42
35848;BME280;22332;51.954;20.118;2023-02-28T14:49:17;101540.82;;;2.17;55.82
35848;BME280;22332;51.954;20.118;2023-02-28T14:52:25;101540.31;;;2.09;55.82
35848;BME280;22332;51.954;20.118;2023-02-28T14:55:35;101536.41;;;2.02;56.00
35848;BME280;22332;51.954;20.118;2023-02-28T14:58:41;101538.73;;;1.97;56.19
35848;BME280;22332;51.954;20.118;2023-02-28T15:02:20;101535.99;;;1.91;55.88
35848;BME280;22332;51.954;20.118;2023-02-28T15:05:29;101536.05;;;1.89;56.21
35848;BME280;22332;51.954;20.118;2023-02-28T15:08:35;101531.23;;;1.87;56.48
35848;BME280;22332;51.954;20.118;2023-02-28T15:11:41;101532.61;;;1.83;56.47
35848;BME280;22332;51.954;20.118;2023-02-28T15:14:47;101532.61;;;1.75;56.53
35848;BME280;22332;51.954;20.118;2023-02-28T15:17:56;101531.64;;;1.69;56.81
35848;BME280;22332;51.954;20.118;2023-02-28T15:21:05;101527.64;;;1.64;56.96
35848;BME280;22332;51.954;20.118;2023-02-28T15:24:15;101527.98;;;1.61;56.89
35848;BME280;22332;51.954;20.118;2023-02-28T15:27:30;101528.30;;;1.57;56.78
35848;BME280;22332;51.954;20.118;2023-02-28T15:30:36;101525.66;;;1.53;56.84
35848;BME280;22332;51.954;20.118;2023-02-28T15:33:54;101525.52;;;1.47;57.11
35848;BME280;22332;51.954;20.118;2023-02-28T15:36:59;101519.70;;;1.40;57.19
35848;BME280;22332;51.954;20.118;2023-02-28T15:40:13;101521.51;;;1.34;57.11
35848;BME280;22332;51.954;20.118;2023-02-28T15:43:25;101519.84;;;1.28;57.33
35848;BME280;22332;51.954;20.118;2023-02-28T15:46:32;101524.23;;;1.24;57.08
35848;BME280;22332;51.954;20.118;2023-02-28T15:49:47;101523.56;;;1.18;57.38
35848;BME280;22332;51.954;20.118;2023-02-28T15:53:05;101530.71;;;1.10;57.57
35848;BME280;22332;51.954;20.118;2023-02-28T15:56:33;101530.02;;;1.01;57.66
35848;BME280;22332;51.954;20.118;2023-02-28T15:59:39;101529.63;;;0.93;57.68
35848;BME280;22332;51.954;20.118;2023-02-28T16:02:44;101533.73;;;0.87;57.61
35848;BME280;22332;51.954;20.118;2023-02-28T16:06:12;101535.94;;;0.79;57.80
35848;BME280;22332;51.954;20.118;2023-02-28T16:09:27;101540.85;;;0.70;57.81
35848;BME280;22332;51.954;20.118;2023-02-28T16:12:37;101544.71;;;0.60;57.89
35848;BME280;22332;51.954;20.118;2023-02-28T16:15:44;101544.13;;;0.53;58.05
35848;BME280;22332;51.954;20.118;2023-02-28T16:18:51;101547.79;;;0.38;57.93
35848;BME280;22332;51.954;20.118;2023-02-28T16:21:56;101549.67;;;0.26;58.02
35848;BME280;22332;51.954;20.118;2023-02-28T16:25:02;101549.52;;;0.15;58.08
35848;BME280;22332;51.954;20.118;2023-02-28T16:28:17;101553.59;;;-0.01;58.08